createdAt,value
2018-06-11T01:16:33.237Z,7.10
2018-06-11T01:27:15.590Z,7.67
2018-06-11T01:35:31.086Z,6.30
2018-06-11T01:40:53.630Z,6.53
2018-06-11T02:00:37.859Z,3.43
2018-06-11T02:05:56.673Z,5.67
2018-06-11T02:22:24.826Z,6.10
2018-06-11T02:46:58.308Z,6.20
2018-06-11T03:03:38.173Z,6.40
2018-06-11T03:09:12.237Z,5.60
2018-06-11T03:17:25.534Z,4.83
2018-06-11T03:31:31.245Z,4.43
2018-06-11T03:41:05.515Z,2.50
2018-06-11T03:52:04.947Z,5.03
2018-06-11T03:54:33.060Z,3.50
2018-06-11T03:57:02.140Z,3.70
2018-06-11T03:59:30.207Z,3.77
2018-06-11T04:01:59.332Z,3.80
2018-06-11T04:04:27.403Z,4.00
2018-06-11T04:06:55.357Z,4.03
2018-06-11T04:09:23.536Z,3.40
2018-06-11T04:11:51.512Z,3.60
2018-06-11T04:14:19.901Z,4.60
2018-06-11T04:16:47.987Z,3.43
2018-06-11T04:19:16.357Z,3.70
2018-06-11T04:21:44.309Z,3.30
2018-06-11T04:24:12.372Z,3.60
2018-06-11T04:26:40.212Z,3.10
2018-06-11T04:29:08.696Z,3.33
2018-06-11T04:31:36.773Z,2.70
2018-06-11T04:34:04.746Z,3.23
2018-06-11T04:36:33.556Z,3.23
2018-06-11T04:39:01.503Z,2.80
2018-06-11T04:41:29.420Z,3.20
2018-06-11T04:43:57.674Z,3.40
2018-06-11T04:46:25.508Z,3.20
2018-06-11T04:48:53.336Z,4.33
2018-06-11T04:51:21.205Z,3.10
2018-06-11T04:53:49.202Z,3.20
2018-06-11T04:56:17.395Z,2.73
2018-06-11T04:58:45.337Z,3.27
2018-06-11T05:01:13.438Z,3.10
2018-06-11T05:03:42.131Z,2.97
2018-06-11T05:06:10.116Z,2.90
2018-06-11T05:08:38.468Z,3.10
2018-06-11T05:11:07.248Z,3.40
2018-06-11T05:13:35.125Z,3.10
2018-06-11T05:16:03.168Z,3.57
2018-06-11T05:18:31.156Z,2.70
2018-06-11T05:20:59.765Z,3.23
2018-06-11T05:23:27.596Z,3.23
2018-06-11T05:25:55.649Z,3.03
2018-06-11T05:28:24.037Z,2.40
2018-06-11T05:30:52.432Z,2.77
2018-06-11T05:33:34.987Z,3.20
2018-06-11T05:36:03.950Z,3.80
2018-06-11T05:38:32.657Z,3.53
2018-06-11T05:41:00.715Z,3.83
2018-06-11T05:43:28.664Z,3.13
2018-06-11T05:45:56.720Z,4.07
2018-06-11T05:48:25.392Z,3.00
2018-06-11T05:50:53.709Z,3.53
2018-06-11T05:53:21.761Z,3.17
2018-06-11T05:55:50.088Z,3.70
2018-06-11T05:58:18.594Z,3.40
2018-06-11T06:00:46.869Z,3.83
2018-06-11T06:03:15.061Z,4.20
2018-06-11T06:05:43.906Z,4.30
2018-06-11T06:08:12.013Z,3.57
2018-06-11T06:10:40.397Z,4.00
2018-06-11T06:13:08.187Z,3.73
2018-06-11T06:15:36.562Z,4.30
2018-06-11T06:18:05.040Z,4.17
2018-06-11T06:20:33.235Z,4.13
2018-06-11T06:23:01.261Z,4.17
2018-06-11T06:25:29.746Z,4.67
2018-06-11T06:27:57.839Z,4.30
2018-06-11T06:30:27.458Z,4.43
2018-06-11T06:32:55.743Z,4.20
2018-06-11T06:35:23.913Z,4.23
2018-06-11T06:37:52.008Z,4.33
2018-06-11T06:40:22.822Z,4.27
2018-06-11T06:42:51.324Z,3.80
2018-06-11T06:45:20.266Z,5.13
2018-06-11T06:47:48.607Z,4.40
2018-06-11T06:50:16.644Z,4.23
2018-06-11T06:52:45.752Z,4.43
2018-06-11T06:55:14.799Z,3.83
2018-06-11T06:57:43.349Z,3.90
2018-06-11T07:00:12.425Z,3.97
2018-06-11T07:02:41.517Z,4.90
2018-06-11T07:05:09.667Z,3.90
2018-06-11T07:07:39.339Z,3.93
2018-06-11T07:10:08.275Z,4.77
2018-06-11T07:12:36.390Z,2.90
2018-06-11T07:15:04.702Z,3.90
2018-06-11T07:17:32.745Z,3.27
2018-06-11T07:20:00.885Z,3.97
2018-06-11T07:22:30.393Z,3.53
2018-06-11T07:24:58.485Z,4.00
2018-06-11T07:27:26.522Z,3.50
2018-06-11T07:29:54.456Z,3.80
2018-06-11T07:32:23.713Z,4.07
2018-06-11T07:34:51.650Z,3.70
2018-06-11T07:37:19.842Z,4.60
2018-06-11T07:39:48.033Z,3.33
2018-06-11T07:42:16.579Z,3.03
2018-06-11T07:44:45.317Z,3.13
2018-06-11T07:47:14.789Z,4.00
2018-06-11T07:49:44.514Z,3.60
2018-06-11T07:52:37.044Z,4.10
2018-06-11T07:55:05.022Z,3.20
2018-06-11T07:57:32.818Z,3.40
2018-06-11T08:00:00.951Z,4.10
2018-06-11T08:02:29.779Z,4.20
2018-06-11T08:04:58.510Z,3.23
2018-06-11T08:07:26.829Z,2.60
2018-06-11T08:09:55.874Z,3.67
2018-06-11T08:12:23.772Z,3.40
2018-06-11T08:15:03.765Z,3.00
2018-06-11T08:17:31.754Z,3.10
2018-06-11T08:20:01.240Z,2.60
2018-06-11T08:22:29.202Z,2.50
2018-06-11T08:24:57.325Z,4.00
2018-06-11T08:27:25.214Z,3.20
2018-06-11T08:32:39.827Z,2.03
2018-06-11T08:35:08.517Z,3.20
2018-06-11T08:40:20.978Z,3.10
2018-06-11T08:42:49.310Z,2.90
2018-06-11T08:45:18.084Z,3.30
2018-06-11T08:47:47.095Z,2.60
2018-06-11T08:50:15.775Z,2.60
2018-06-11T08:52:44.377Z,2.87
2018-06-11T08:55:12.590Z,2.10
2018-06-11T08:57:40.920Z,2.40
2018-06-11T09:00:09.352Z,2.30
2018-06-11T09:02:37.244Z,2.70
2018-06-11T09:05:05.491Z,2.80
2018-06-11T09:07:33.460Z,2.80
2018-06-11T09:10:01.583Z,2.10
2018-06-11T09:12:29.860Z,1.87
2018-06-11T09:14:59.892Z,2.30
2018-06-11T09:17:27.915Z,2.77
2018-06-11T09:19:55.940Z,1.97
2018-06-11T09:22:24.015Z,3.80
2018-06-11T09:24:52.445Z,2.73
2018-06-11T09:27:20.892Z,2.33
2018-06-11T09:29:49.022Z,2.40
2018-06-11T09:32:16.941Z,2.13
2018-06-11T09:34:44.706Z,2.27
2018-06-11T09:37:12.517Z,2.93
2018-06-11T09:39:40.994Z,1.80
2018-06-11T09:42:09.643Z,2.60
2018-06-11T09:44:37.450Z,2.53
2018-06-11T09:47:05.726Z,2.50
2018-06-11T09:49:33.546Z,2.60
2018-06-11T09:52:01.359Z,2.60
2018-06-11T09:54:29.176Z,2.40
2018-06-11T09:56:57.148Z,2.47
2018-06-11T09:59:25.201Z,2.67
2018-06-11T10:01:53.320Z,2.40
2018-06-11T10:04:21.545Z,3.00
2018-06-11T10:06:49.514Z,3.00
2018-06-11T10:09:17.517Z,2.40
2018-06-11T10:11:45.431Z,1.90
2018-06-11T10:14:13.214Z,2.53
2018-06-11T10:16:41.162Z,2.97
2018-06-11T10:19:09.269Z,2.30
2018-06-11T10:21:37.282Z,2.67
2018-06-11T10:24:05.523Z,2.33
2018-06-11T10:26:33.508Z,2.70
2018-06-11T10:29:01.613Z,2.27
2018-06-11T10:31:29.803Z,2.00
2018-06-11T10:33:58.233Z,2.50
2018-06-11T10:36:26.377Z,2.90
2018-06-11T10:38:54.272Z,2.97
2018-06-11T10:41:22.202Z,2.80
2018-06-11T10:43:50.108Z,2.83
2018-06-11T10:46:18.295Z,2.80
2018-06-11T10:48:46.358Z,2.93
2018-06-11T10:51:14.399Z,2.67
2018-06-11T10:53:42.681Z,2.53
2018-06-11T10:56:10.773Z,2.77
2018-06-11T10:58:38.576Z,2.70
2018-06-11T11:01:06.624Z,2.70
2018-06-11T11:03:35.188Z,3.80
2018-06-11T11:06:03.318Z,3.40
2018-06-11T11:08:31.620Z,2.67
2018-06-11T11:10:59.238Z,3.27
2018-06-11T11:13:27.267Z,3.20
2018-06-11T11:15:55.416Z,2.70
2018-06-11T11:18:23.543Z,2.80
2018-06-11T11:20:51.573Z,3.37
2018-06-11T11:23:19.991Z,3.03
2018-06-11T11:25:48.093Z,3.43
2018-06-11T11:28:16.044Z,2.70
2018-06-11T11:30:44.031Z,3.30
2018-06-11T11:33:11.826Z,3.37
2018-06-11T11:35:39.673Z,3.90
2018-06-11T11:38:07.694Z,3.07
2018-06-11T11:40:35.654Z,3.17
2018-06-11T11:43:03.575Z,3.70
2018-06-11T11:45:31.553Z,2.67
2018-06-11T11:47:59.571Z,3.20
2018-06-11T11:50:27.630Z,3.93
2018-06-11T11:52:55.416Z,2.60
2018-06-11T11:55:23.383Z,3.27
2018-06-11T11:57:51.338Z,3.30
2018-06-11T12:00:19.700Z,3.27
2018-06-11T12:02:47.657Z,3.23
2018-06-11T12:05:17.900Z,3.20
2018-06-11T12:07:45.777Z,3.20
2018-06-11T12:10:13.609Z,3.30
2018-06-11T12:12:41.591Z,3.30
2018-06-11T12:15:09.753Z,2.70
2018-06-11T12:17:37.580Z,3.20
2018-06-11T12:20:05.393Z,3.30
2018-06-11T12:22:33.443Z,3.50
2018-06-11T12:25:01.285Z,2.50
2018-06-11T12:27:29.259Z,3.33
2018-06-11T12:29:57.233Z,3.00
2018-06-11T12:32:25.051Z,3.50
2018-06-11T12:34:56.281Z,2.83
2018-06-11T12:37:24.501Z,3.20
2018-06-11T12:39:52.621Z,3.43
2018-06-11T12:42:20.608Z,4.07
2018-06-11T12:44:59.601Z,3.60
2018-06-11T12:47:28.481Z,3.00
2018-06-11T12:49:56.643Z,3.63
2018-06-11T12:52:24.409Z,2.00
2018-06-11T12:54:52.182Z,3.27
2018-06-11T12:57:20.105Z,3.03
2018-06-11T12:59:47.823Z,3.17
2018-06-11T13:02:15.579Z,3.70
2018-06-11T13:04:43.385Z,3.87
2018-06-11T13:07:12.389Z,2.83
2018-06-11T13:09:41.324Z,3.10
2018-06-11T13:48:59.962Z,3.57
2018-06-11T13:56:22.320Z,3.50
2018-06-11T13:58:50.183Z,2.63
2018-06-11T14:01:18.008Z,3.40
2018-06-11T14:03:45.793Z,3.30
2018-06-11T14:08:42.476Z,3.30
2018-06-11T14:11:10.745Z,3.07
2018-06-11T14:13:39.932Z,2.10
2018-06-11T14:16:07.975Z,3.07
2018-06-11T14:18:35.916Z,3.57
2018-06-11T14:21:03.826Z,2.97
2018-06-11T14:23:31.726Z,3.10
2018-06-11T14:26:01.581Z,2.90
2018-06-11T14:28:29.786Z,2.70
2018-06-11T14:30:57.576Z,3.47
2018-06-11T14:33:25.447Z,2.40
2018-06-11T14:35:53.804Z,2.70
2018-06-11T14:38:21.460Z,3.03
2018-06-11T14:40:49.231Z,2.50
2018-06-11T14:43:17.238Z,3.10
2018-06-11T14:45:44.909Z,2.50
2018-06-11T14:48:12.574Z,3.30
2018-06-11T14:50:43.155Z,3.10
2018-06-11T14:53:10.827Z,2.77
2018-06-11T14:55:38.756Z,3.30
2018-06-11T14:58:06.676Z,3.00
2018-06-11T15:00:34.457Z,2.90
2018-06-11T15:03:02.264Z,2.97
2018-06-11T15:05:30.042Z,2.80
2018-06-11T15:07:58.674Z,3.03
2018-06-11T15:10:26.540Z,3.33
2018-06-11T15:12:54.780Z,2.90
2018-06-11T15:15:22.587Z,3.07
2018-06-11T15:17:51.175Z,3.63
2018-06-11T15:20:19.533Z,3.20
2018-06-11T15:22:47.737Z,2.93
2018-06-11T15:25:15.860Z,3.20
2018-06-11T15:27:43.863Z,3.80
2018-06-11T15:30:11.787Z,3.27
2018-06-11T15:32:39.566Z,3.40
2018-06-11T15:35:14.045Z,3.47
2018-06-11T15:37:42.173Z,2.63
2018-06-11T15:40:11.372Z,3.03
2018-06-11T15:42:39.961Z,2.80
2018-06-11T15:45:09.260Z,2.30
2018-06-11T15:47:41.116Z,3.20
2018-06-11T15:50:16.077Z,3.10
2018-06-11T15:52:55.036Z,3.60
2018-06-11T15:55:24.716Z,2.70
2018-06-11T15:57:57.739Z,2.90
2018-06-11T16:00:28.140Z,3.03
2018-06-11T16:02:59.784Z,3.73
2018-06-11T16:05:31.366Z,3.63
2018-06-11T16:15:23.380Z,2.90
2018-06-11T16:17:58.338Z,3.10
2018-06-11T16:20:29.636Z,3.30
2018-06-11T16:23:08.449Z,3.67
2018-06-11T16:25:36.688Z,2.90
2018-06-11T16:28:12.235Z,2.30
2018-06-11T16:33:33.223Z,3.10
2018-06-11T16:36:06.190Z,2.70
2018-06-11T16:38:41.117Z,3.80
2018-06-11T16:41:15.206Z,2.60
2018-06-11T16:43:53.916Z,3.30
2018-06-11T16:46:32.415Z,2.60
2018-06-11T16:49:24.842Z,3.13
2018-06-11T16:51:53.773Z,2.73
2018-06-11T16:54:28.661Z,2.63
2018-06-11T16:57:11.923Z,2.87
2018-06-11T16:59:43.031Z,2.20
2018-06-11T17:02:24.235Z,2.60
2018-06-11T17:04:58.202Z,3.10
2018-06-11T17:07:28.121Z,3.03
2018-06-11T17:10:06.156Z,2.77
2018-06-11T17:12:38.992Z,2.60
2018-06-11T17:15:08.225Z,2.60
2018-06-11T17:17:45.357Z,3.07
2018-06-11T17:20:19.281Z,3.80
2018-06-11T17:22:52.059Z,3.30
2018-06-11T17:25:22.488Z,2.40
2018-06-11T17:33:08.933Z,2.73
2018-06-11T17:35:42.947Z,2.80
2018-06-11T17:38:15.529Z,3.00
2018-06-11T17:40:45.505Z,2.67
2018-06-11T17:43:13.318Z,2.30
2018-06-11T17:45:41.852Z,3.00
2018-06-11T17:48:10.042Z,3.07
2018-06-11T17:50:39.984Z,3.40
2018-06-11T17:53:09.520Z,3.50
2018-06-11T17:55:40.292Z,3.83
2018-06-11T17:58:10.737Z,3.00
2018-06-11T18:00:43.484Z,2.90
2018-06-11T18:03:16.274Z,2.80
2018-06-11T18:05:49.169Z,3.40
2018-06-11T18:08:18.613Z,3.30
2018-06-11T18:10:48.707Z,3.40
2018-06-11T18:13:16.939Z,2.70
2018-06-11T18:15:49.489Z,2.90
2018-06-11T18:18:20.273Z,3.00
2018-06-11T18:20:48.803Z,3.00
2018-06-11T18:23:20.339Z,2.90
2018-06-11T18:25:51.319Z,3.23
2018-06-11T18:28:23.715Z,2.87
2018-06-11T18:30:54.181Z,3.00
2018-06-11T18:33:22.087Z,2.90
2018-06-11T18:35:51.342Z,2.90
2018-06-11T18:38:22.850Z,3.70
2018-06-11T18:40:53.130Z,3.60
2018-06-11T18:43:21.732Z,3.83
2018-06-11T18:45:51.053Z,3.00
2018-06-11T18:48:19.861Z,2.87
2018-06-11T18:50:56.122Z,3.73
2018-06-11T18:53:28.766Z,2.80
2018-06-11T18:55:57.170Z,3.20
2018-06-11T18:58:26.442Z,4.60
2018-06-11T19:00:54.567Z,2.87
2018-06-11T19:03:23.104Z,3.23
2018-06-11T19:05:51.266Z,3.10
2018-06-11T19:08:19.390Z,3.33
2018-06-11T19:10:47.496Z,3.80
2018-06-11T19:13:15.919Z,4.50
2018-06-11T19:15:44.063Z,3.33
2018-06-11T19:18:12.529Z,3.83
2018-06-11T19:20:43.155Z,5.77
2018-06-11T19:23:12.584Z,9.50
2018-06-11T19:25:41.388Z,3.83
2018-06-11T19:28:09.342Z,4.40
2018-06-11T19:30:37.409Z,4.33
2018-06-11T19:33:07.109Z,3.70
2018-06-11T19:35:36.229Z,4.30
2018-06-11T19:38:04.761Z,4.43
2018-06-11T19:40:36.175Z,4.20
2018-06-11T19:43:04.784Z,3.70
2018-06-11T19:45:32.585Z,3.60
2018-06-11T19:48:03.236Z,4.30
2018-06-11T19:50:32.156Z,3.70
2018-06-11T19:53:01.135Z,4.17
2018-06-11T19:55:29.110Z,4.20
2018-06-11T19:58:00.173Z,4.33
2018-06-11T20:00:28.137Z,4.07
2018-06-11T20:02:56.167Z,3.87
2018-06-11T20:05:24.205Z,3.90
2018-06-11T20:07:52.403Z,3.53
2018-06-11T20:10:20.627Z,3.90
2018-06-11T20:12:49.126Z,3.47
2018-06-11T20:15:17.308Z,3.30
2018-06-11T20:17:46.133Z,3.73
2018-06-11T20:20:14.737Z,3.20
2018-06-11T20:22:43.480Z,3.83
2018-06-11T20:25:17.410Z,3.80
2018-06-11T20:27:50.034Z,3.60
2018-06-11T20:30:32.805Z,3.67
2018-06-11T20:33:15.517Z,4.10
2018-06-11T20:35:54.688Z,4.03
2018-06-11T20:38:31.227Z,3.27
2018-06-11T20:41:13.131Z,3.07
2018-06-11T20:43:52.383Z,3.87
2018-06-11T20:46:24.697Z,3.87
2018-06-11T20:48:58.664Z,3.67
2018-06-11T20:51:27.070Z,3.80
2018-06-11T20:54:02.382Z,3.17
2018-06-11T20:56:35.976Z,3.33
2018-06-11T20:59:29.020Z,3.57
2018-06-11T21:02:00.699Z,3.27
2018-06-11T21:04:32.944Z,3.90
2018-06-11T21:07:01.647Z,3.50
2018-06-11T21:09:30.192Z,3.20
2018-06-11T21:11:59.012Z,3.60
2018-06-11T21:14:27.265Z,4.47
2018-06-11T21:16:55.452Z,4.47
2018-06-11T21:19:24.094Z,4.07
2018-06-11T21:21:52.363Z,3.97
2018-06-11T21:24:20.549Z,3.90
2018-06-11T21:26:50.673Z,4.30
2018-06-11T21:29:19.823Z,4.40
2018-06-11T21:31:48.311Z,3.80
2018-06-11T21:34:18.487Z,4.80
2018-06-11T21:36:46.561Z,4.20
2018-06-11T21:39:14.607Z,5.27
2018-06-11T21:41:43.190Z,3.87
2018-06-11T21:44:11.207Z,4.97
2018-06-11T21:46:39.500Z,4.60
2018-06-11T21:49:08.114Z,5.07
2018-06-11T21:51:36.236Z,4.53
2018-06-11T21:54:05.042Z,3.90
2018-06-11T21:56:33.625Z,3.70
2018-06-11T21:59:01.750Z,3.77
2018-06-11T22:01:29.685Z,3.60
2018-06-11T22:03:57.759Z,3.87
2018-06-11T22:06:26.788Z,5.77
2018-06-11T22:08:54.745Z,4.10
2018-06-11T22:11:22.895Z,3.17
2018-06-11T22:13:50.872Z,3.60
2018-06-11T22:16:18.810Z,3.17
2018-06-11T22:18:46.887Z,3.77
2018-06-11T22:21:15.548Z,3.43
2018-06-11T22:23:49.070Z,2.90
2018-06-11T22:26:17.672Z,3.23
2018-06-11T22:28:45.523Z,1.97
2018-06-11T22:31:13.333Z,2.87
2018-06-11T22:33:41.151Z,2.80
2018-06-11T22:36:09.042Z,2.80
2018-06-11T22:38:38.004Z,2.13
2018-06-11T22:41:05.972Z,2.27
2018-06-11T22:43:33.891Z,2.40
2018-06-11T22:46:01.652Z,2.13
2018-06-11T22:48:29.641Z,2.17
2018-06-11T22:50:57.580Z,2.30
2018-06-11T22:53:25.540Z,2.27
2018-06-11T22:55:53.376Z,2.40
2018-06-11T22:58:21.272Z,2.23
2018-06-11T23:00:49.296Z,2.43
2018-06-11T23:03:17.263Z,1.83
2018-06-11T23:05:45.156Z,2.33
2018-06-11T23:08:12.955Z,2.20
2018-06-11T23:10:41.172Z,2.70
2018-06-11T23:13:09.112Z,2.47
2018-06-11T23:15:36.940Z,1.90
2018-06-11T23:18:05.324Z,2.13
2018-06-11T23:20:33.092Z,2.20
2018-06-11T23:23:01.027Z,2.23
2018-06-11T23:25:28.848Z,2.70
2018-06-11T23:27:56.612Z,2.20
2018-06-11T23:30:24.532Z,1.77
2018-06-11T23:32:53.052Z,1.50
2018-06-11T23:35:20.781Z,1.83
2018-06-11T23:37:48.792Z,2.10
2018-06-11T23:40:16.812Z,1.93
2018-06-11T23:42:44.695Z,1.93
2018-06-11T23:45:12.776Z,2.10
2018-06-11T23:47:40.721Z,2.87
2018-06-11T23:50:08.632Z,2.23
2018-06-11T23:52:36.635Z,2.20
2018-06-11T23:55:04.633Z,2.30
2018-06-11T23:57:32.825Z,2.20
